sensor_id;sensor_type;location;lat;lon;timestamp;pressure;altitude;pressure_sealevel;temperature;humidity
9784;BME280;4931;44.874;-1.092;2023-02-22T00:01:14;101407.03;;;11.34;100.00
9784;BME280;4931;44.874;-1.092;2023-02-22T00:04:12;101397.69;;;11.29;100.00
9784;BME280;4931;44.874;-1.092;2023-02-22T00:06:38;101406.19;;;11.33;100.00
9784;BME280;4931;44.874;-1.092;2023-02-22T00:09:03;101403.19;;;11.29;100.00
9784;BME280;4931;44.874;-1.092;2023-02-22T00:11:30;101398.47;;;11.25;100.00
9784;BME280;4931;44.874;-1.092;2023-02-22T00:13:56;101403.41;;;11.28;100.00
9784;BME280;4931;44.874;-1.092;2023-02-22T00:16:22;101399.84;;;11.27;100.00
9784;BME280;4931;44.874;-1.092;2023-02-22T00:18:48;101397.94;;;11.28;100.00
9784;BME280;4931;44.874;-1.092;2023-02-22T00:21:15;101401.25;;;11.30;100.00
9784;BME280;4931;44.874;-1.092;2023-02-22T00:23:44;101391.91;;;11.31;100.00
9784;BME280;4931;44.874;-1.092;2023-02-22T00:26:15;101392.19;;;11.29;100.00
9784;BME280;4931;44.874;-1.092;2023-02-22T00:28:45;101393.00;;;11.30;100.00
9784;BME280;4931;44.874;-1.092;2023-02-22T00:31:10;101396.31;;;11.32;100.00
9784;BME280;4931;44.874;-1.092;2023-02-22T00:33:38;101402.91;;;11.31;100.00
9784;BME280;4931;44.874;-1.092;2023-02-22T00:36:03;101386.97;;;11.38;100.00
9784;BME280;4931;44.874;-1.092;2023-02-22T00:38:29;101393.59;;;11.37;100.00
9784;BME280;4931;44.874;-1.092;2023-02-22T00:40:54;101388.63;;;11.34;100.00
9784;BME280;4931;44.874;-1.092;2023-02-22T00:43:20;101406.22;;;11.38;100.00
9784;BME280;4931;44.874;-1.092;2023-02-22T00:45:45;101405.94;;;11.35;100.00
9784;BME280;4931;44.874;-1.092;2023-02-22T00:48:11;101416.66;;;11.36;100.00
9784;BME280;4931;44.874;-1.092;2023-02-22T00:50:37;101414.44;;;11.33;100.00
9784;BME280;4931;44.874;-1.092;2023-02-22T00:53:04;101412.25;;;11.35;100.00
9784;BME280;4931;44.874;-1.092;2023-02-22T00:55:31;101418.84;;;11.34;100.00
9784;BME280;4931;44.874;-1.092;2023-02-22T00:57:58;101412.81;;;11.32;100.00
9784;BME280;4931;44.874;-1.092;2023-02-22T01:02:50;101428.72;;;11.35;100.00
9784;BME280;4931;44.874;-1.092;2023-02-22T01:05:18;101436.41;;;11.33;100.00
9784;BME280;4931;44.874;-1.092;2023-02-22T01:07:44;101431.47;;;11.30;100.00
9784;BME280;4931;44.874;-1.092;2023-02-22T01:10:10;101440.81;;;11.34;100.00
9784;BME280;4931;44.874;-1.092;2023-02-22T01:12:37;101440.28;;;11.32;100.00
9784;BME280;4931;44.874;-1.092;2023-02-22T01:15:04;101439.72;;;11.35;100.00
9784;BME280;4931;44.874;-1.092;2023-02-22T01:17:30;101434.78;;;11.32;100.00
9784;BME280;4931;44.874;-1.092;2023-02-22T01:19:55;101442.44;;;11.30;100.00
9784;BME280;4931;44.874;-1.092;2023-02-22T01:22:22;101447.38;;;11.33;100.00
9784;BME280;4931;44.874;-1.092;2023-02-22T01:24:49;101445.75;;;11.32;100.00
9784;BME280;4931;44.874;-1.092;2023-02-22T01:27:15;101446.88;;;11.36;100.00
9784;BME280;4931;44.874;-1.092;2023-02-22T01:29:41;101446.28;;;11.29;100.00
9784;BME280;4931;44.874;-1.092;2023-02-22T01:32:07;101447.91;;;11.25;100.00
9784;BME280;4931;44.874;-1.092;2023-02-22T01:34:33;101450.66;;;11.25;100.00
9784;BME280;4931;44.874;-1.092;2023-02-22T01:36:59;101455.59;;;11.28;100.00
9784;BME280;4931;44.874;-1.092;2023-02-22T01:39:25;101449.84;;;11.24;100.00
9784;BME280;4931;44.874;-1.092;2023-02-22T01:41:51;101455.84;;;11.21;100.00
9784;BME280;4931;44.874;-1.092;2023-02-22T01:44:31;101447.88;;;11.20;100.00
9784;BME280;4931;44.874;-1.092;2023-02-22T01:46:58;101454.75;;;11.17;100.00
9784;BME280;4931;44.874;-1.092;2023-02-22T01:49:29;101444.59;;;11.18;100.00
9784;BME280;4931;44.874;-1.092;2023-02-22T01:51:57;101441.00;;;11.17;100.00
9784;BME280;4931;44.874;-1.092;2023-02-22T01:54:26;101440.47;;;11.15;100.00
9784;BME280;4931;44.874;-1.092;2023-02-22T01:57:00;101439.09;;;11.18;100.00
9784;BME280;4931;44.874;-1.092;2023-02-22T01:59:29;101433.03;;;11.16;100.00
9784;BME280;4931;44.874;-1.092;2023-02-22T02:01:58;101435.78;;;11.16;100.00
9784;BME280;4931;44.874;-1.092;2023-02-22T02:04:25;101426.47;;;11.17;100.00
9784;BME280;4931;44.874;-1.092;2023-02-22T02:06:53;101425.38;;;11.18;100.00
9784;BME280;4931;44.874;-1.092;2023-02-22T02:09:26;101422.03;;;11.10;100.00
9784;BME280;4931;44.874;-1.092;2023-02-22T02:11:57;101418.44;;;11.05;100.00
9784;BME280;4931;44.874;-1.092;2023-02-22T02:14:25;101425.31;;;11.07;100.00
9784;BME280;4931;44.874;-1.092;2023-02-22T02:16:52;101420.94;;;11.11;100.00
9784;BME280;4931;44.874;-1.092;2023-02-22T02:22:14;101415.44;;;11.11;100.00
9784;BME280;4931;44.874;-1.092;2023-02-22T02:33:31;101423.06;;;10.94;100.00
9784;BME280;4931;44.874;-1.092;2023-02-22T02:36:02;101420.84;;;10.96;100.00
9784;BME280;4931;44.874;-1.092;2023-02-22T02:38:40;101420.84;;;10.96;100.00
9784;BME280;4931;44.874;-1.092;2023-02-22T02:48:57;101425.28;;;11.02;100.00
9784;BME280;4931;44.874;-1.092;2023-02-22T02:51:28;101431.28;;;10.99;100.00
9784;BME280;4931;44.874;-1.092;2023-02-22T02:53:56;101434.63;;;11.01;100.00
9784;BME280;4931;44.874;-1.092;2023-02-22T02:56:22;101429.13;;;11.01;100.00
9784;BME280;4931;44.874;-1.092;2023-02-22T02:58:52;101424.44;;;11.02;100.00
9784;BME280;4931;44.874;-1.092;2023-02-22T03:01:44;101434.06;;;11.04;100.00
9784;BME280;4931;44.874;-1.092;2023-02-22T03:15:18;101453.84;;;11.01;100.00
9784;BME280;4931;44.874;-1.092;2023-02-22T03:20:38;101450.53;;;11.04;100.00
9784;BME280;4931;44.874;-1.092;2023-02-22T03:23:23;101460.97;;;11.02;100.00
9784;BME280;4931;44.874;-1.092;2023-02-22T03:25:54;101464.81;;;11.01;100.00
9784;BME280;4931;44.874;-1.092;2023-02-22T03:28:24;101482.13;;;11.07;100.00
9784;BME280;4931;44.874;-1.092;2023-02-22T03:30:54;101472.50;;;11.04;100.00
9784;BME280;4931;44.874;-1.092;2023-02-22T03:33:39;101469.59;;;11.21;100.00
9784;BME280;4931;44.874;-1.092;2023-02-22T03:36:15;101452.31;;;11.26;100.00
9784;BME280;4931;44.874;-1.092;2023-02-22T03:38:43;101438.56;;;11.21;100.00
9784;BME280;4931;44.874;-1.092;2023-02-22T03:41:11;101440.16;;;11.11;100.00
9784;BME280;4931;44.874;-1.092;2023-02-22T03:43:42;101446.13;;;10.98;100.00
9784;BME280;4931;44.874;-1.092;2023-02-22T03:46:09;101467.34;;;11.13;100.00
9784;BME280;4931;44.874;-1.092;2023-02-22T03:51:01;101482.44;;;11.10;100.00
9784;BME280;4931;44.874;-1.092;2023-02-22T03:53:29;101480.31;;;11.28;100.00
9784;BME280;4931;44.874;-1.092;2023-02-22T03:55:58;101461.09;;;11.28;100.00
9784;BME280;4931;44.874;-1.092;2023-02-22T03:58:26;101459.41;;;11.17;100.00
9784;BME280;4931;44.874;-1.092;2023-02-22T04:00:54;101471.75;;;11.14;100.00
9784;BME280;4931;44.874;-1.092;2023-02-22T04:03:20;101473.16;;;11.17;100.00
9784;BME280;4931;44.874;-1.092;2023-02-22T04:05:46;101490.13;;;11.08;100.00
9784;BME280;4931;44.874;-1.092;2023-02-22T04:08:12;101502.72;;;11.04;100.00
9784;BME280;4931;44.874;-1.092;2023-02-22T04:10:37;101514.59;;;11.15;100.00
9784;BME280;4931;44.874;-1.092;2023-02-22T04:13:03;101516.47;;;11.09;100.00
9784;BME280;4931;44.874;-1.092;2023-02-22T04:15:31;101523.13;;;11.19;100.00
9784;BME280;4931;44.874;-1.092;2023-02-22T04:17:56;101535.75;;;11.20;100.00
9784;BME280;4931;44.874;-1.092;2023-02-22T04:20:22;101543.41;;;11.12;100.00
9784;BME280;4931;44.874;-1.092;2023-02-22T04:22:53;101547.25;;;11.11;100.00
9784;BME280;4931;44.874;-1.092;2023-02-22T04:25:21;101558.50;;;11.10;100.00
9784;BME280;4931;44.874;-1.092;2023-02-22T04:27:47;101567.59;;;11.16;100.00
9784;BME280;4931;44.874;-1.092;2023-02-22T04:30:16;101570.34;;;11.16;100.00
9784;BME280;4931;44.874;-1.092;2023-02-22T04:32:41;101579.22;;;11.33;100.00
9784;BME280;4931;44.874;-1.092;2023-02-22T04:35:07;101575.34;;;11.24;100.00
9784;BME280;4931;44.874;-1.092;2023-02-22T04:37:32;101567.66;;;11.26;100.00
9784;BME280;4931;44.874;-1.092;2023-02-22T04:40:00;101565.72;;;11.26;100.00
9784;BME280;4931;44.874;-1.092;2023-02-22T04:42:25;101574.88;;;11.37;100.00
9784;BME280;4931;44.874;-1.092;2023-02-22T04:44:51;101566.06;;;11.35;100.00
9784;BME280;4931;44.874;-1.092;2023-02-22T04:47:16;101550.13;;;11.32;100.00
9784;BME280;4931;44.874;-1.092;2023-02-22T04:49:42;101555.09;;;11.35;100.00
9784;BME280;4931;44.874;-1.092;2023-02-22T04:52:07;101561.56;;;11.19;100.00
9784;BME280;4931;44.874;-1.092;2023-02-22T04:54:33;101583.03;;;11.22;100.00
9784;BME280;4931;44.874;-1.092;2023-02-22T04:56:58;101591.31;;;11.27;100.00
9784;BME280;4931;44.874;-1.092;2023-02-22T04:59:23;101609.41;;;11.28;100.00
9784;BME280;4931;44.874;-1.092;2023-02-22T05:01:49;101600.59;;;11.21;100.00
9784;BME280;4931;44.874;-1.092;2023-02-22T05:04:14;101610.50;;;11.22;100.00
9784;BME280;4931;44.874;-1.092;2023-02-22T05:06:40;101614.91;;;11.28;100.00
9784;BME280;4931;44.874;-1.092;2023-02-22T05:09:05;101613.50;;;11.20;100.00
9784;BME280;4931;44.874;-1.092;2023-02-22T05:11:31;101610.56;;;11.32;100.00
9784;BME280;4931;44.874;-1.092;2023-02-22T05:13:56;101583.41;;;11.41;100.00
9784;BME280;4931;44.874;-1.092;2023-02-22T05:16:22;101590.53;;;11.37;100.00
9784;BME280;4931;44.874;-1.092;2023-02-22T05:18:47;101594.28;;;11.25;100.00
9784;BME280;4931;44.874;-1.092;2023-02-22T05:21:13;101606.63;;;11.18;100.00
9784;BME280;4931;44.874;-1.092;2023-02-22T05:23:39;101627.50;;;11.24;100.00
9784;BME280;4931;44.874;-1.092;2023-02-22T05:26:04;101634.72;;;11.30;100.00
9784;BME280;4931;44.874;-1.092;2023-02-22T05:28:31;101646.00;;;11.34;100.00
9784;BME280;4931;44.874;-1.092;2023-02-22T05:30:56;101675.19;;;11.07;100.00
9784;BME280;4931;44.874;-1.092;2023-02-22T05:33:22;101732.47;;;10.99;100.00
9784;BME280;4931;44.874;-1.092;2023-02-22T05:35:47;101787.81;;;11.12;100.00
9784;BME280;4931;44.874;-1.092;2023-02-22T05:38:13;101818.50;;;11.09;100.00
9784;BME280;4931;44.874;-1.092;2023-02-22T05:40:39;101837.38;;;11.23;100.00
9784;BME280;4931;44.874;-1.092;2023-02-22T05:43:04;101857.16;;;11.25;100.00
9784;BME280;4931;44.874;-1.092;2023-02-22T05:45:30;101868.72;;;11.05;100.00
9784;BME280;4931;44.874;-1.092;2023-02-22T05:47:55;101898.88;;;11.00;100.00
9784;BME280;4931;44.874;-1.092;2023-02-22T05:50:21;101930.47;;;11.02;100.00
9784;BME280;4931;44.874;-1.092;2023-02-22T05:52:48;101972.16;;;10.99;100.00
9784;BME280;4931;44.874;-1.092;2023-02-22T05:55:16;102009.50;;;11.00;100.00
9784;BME280;4931;44.874;-1.092;2023-02-22T05:57:42;102041.63;;;11.00;100.00
9784;BME280;4931;44.874;-1.092;2023-02-22T06:00:09;102060.09;;;11.04;100.00
9784;BME280;4931;44.874;-1.092;2023-02-22T06:02:35;102074.06;;;11.20;100.00
9784;BME280;4931;44.874;-1.092;2023-02-22T06:05:01;102054.28;;;11.18;100.00
9784;BME280;4931;44.874;-1.092;2023-02-22T06:07:26;102035.38;;;11.04;100.00
9784;BME280;4931;44.874;-1.092;2023-02-22T06:09:52;102039.78;;;11.05;100.00
9784;BME280;4931;44.874;-1.092;2023-02-22T06:12:18;102041.38;;;11.01;100.00
9784;BME280;4931;44.874;-1.092;2023-02-22T06:14:44;102057.34;;;11.04;100.00
9784;BME280;4931;44.874;-1.092;2023-02-22T06:17:14;102077.25;;;11.11;100.00
9784;BME280;4931;44.874;-1.092;2023-02-22T06:19:39;102079.91;;;11.06;100.00
9784;BME280;4931;44.874;-1.092;2023-02-22T06:22:06;102079.22;;;10.99;100.00
9784;BME280;4931;44.874;-1.092;2023-02-22T06:24:32;102109.69;;;10.98;100.00
9784;BME280;4931;44.874;-1.092;2023-02-22T06:27:00;102116.94;;;11.21;100.00
9784;BME280;4931;44.874;-1.092;2023-02-22T06:29:27;102088.47;;;11.27;100.00
9784;BME280;4931;44.874;-1.092;2023-02-22T06:31:53;102076.16;;;11.12;100.00
9784;BME280;4931;44.874;-1.092;2023-02-22T06:34:19;102076.88;;;11.25;100.00
9784;BME280;4931;44.874;-1.092;2023-02-22T06:36:47;102075.06;;;11.13;100.00
9784;BME280;4931;44.874;-1.092;2023-02-22T06:39:13;102069.00;;;11.11;100.00
9784;BME280;4931;44.874;-1.092;2023-02-22T06:41:44;102071.50;;;11.13;100.00
9784;BME280;4931;44.874;-1.092;2023-02-22T06:44:10;102074.34;;;11.01;100.00
9784;BME280;4931;44.874;-1.092;2023-02-22T06:46:37;102111.00;;;10.95;100.00
9784;BME280;4931;44.874;-1.092;2023-02-22T06:49:03;102150.72;;;11.04;100.00
9784;BME280;4931;44.874;-1.092;2023-02-22T06:51:29;102180.63;;;11.18;100.00
9784;BME280;4931;44.874;-1.092;2023-02-22T06:53:55;102183.28;;;11.12;100.00
9784;BME280;4931;44.874;-1.092;2023-02-22T06:56:21;102183.59;;;11.33;100.00
9784;BME280;4931;44.874;-1.092;2023-02-22T06:58:47;102170.09;;;11.15;100.00
9784;BME280;4931;44.874;-1.092;2023-02-22T07:01:13;102167.94;;;11.17;100.00
9784;BME280;4931;44.874;-1.092;2023-02-22T07:03:39;102165.28;;;11.22;100.00
9784;BME280;4931;44.874;-1.092;2023-02-22T07:06:05;102169.53;;;11.12;100.00
9784;BME280;4931;44.874;-1.092;2023-02-22T07:08:31;102167.53;;;11.08;100.00
9784;BME280;4931;44.874;-1.092;2023-02-22T07:10:56;102178.59;;;11.30;100.00
9784;BME280;4931;44.874;-1.092;2023-02-22T07:13:22;102186.50;;;11.09;100.00
9784;BME280;4931;44.874;-1.092;2023-02-22T07:15:47;102201.91;;;11.10;100.00
9784;BME280;4931;44.874;-1.092;2023-02-22T07:18:13;102219.94;;;11.06;100.00
9784;BME280;4931;44.874;-1.092;2023-02-22T07:20:41;102227.22;;;11.12;100.00
9784;BME280;4931;44.874;-1.092;2023-02-22T07:23:06;102228.53;;;11.10;100.00
9784;BME280;4931;44.874;-1.092;2023-02-22T07:25:32;102230.44;;;11.09;100.00
9784;BME280;4931;44.874;-1.092;2023-02-22T07:27:58;102252.75;;;11.13;100.00
9784;BME280;4931;44.874;-1.092;2023-02-22T07:30:31;102263.31;;;11.21;100.00
9784;BME280;4931;44.874;-1.092;2023-02-22T07:33:00;102282.63;;;11.09;100.00
9784;BME280;4931;44.874;-1.092;2023-02-22T07:35:30;102302.44;;;11.11;100.00
9784;BME280;4931;44.874;-1.092;2023-02-22T07:37:57;102306.00;;;11.12;100.00
9784;BME280;4931;44.874;-1.092;2023-02-22T07:40:24;102313.94;;;11.08;100.00
9784;BME280;4931;44.874;-1.092;2023-02-22T07:42:58;102335.91;;;11.08;100.00
9784;BME280;4931;44.874;-1.092;2023-02-22T07:45:29;102352.38;;;11.08;100.00
9784;BME280;4931;44.874;-1.092;2023-02-22T07:47:55;102369.31;;;11.05;100.00
9784;BME280;4931;44.874;-1.092;2023-02-22T07:50:22;102381.47;;;11.09;100.00
9784;BME280;4931;44.874;-1.092;2023-02-22T07:52:50;102394.75;;;11.12;100.00
9784;BME280;4931;44.874;-1.092;2023-02-22T07:55:19;102409.16;;;11.20;100.00
9784;BME280;4931;44.874;-1.092;2023-02-22T07:57:46;102410.13;;;11.13;100.00
9784;BME280;4931;44.874;-1.092;2023-02-22T08:00:13;102417.50;;;11.25;100.00
9784;BME280;4931;44.874;-1.092;2023-02-22T08:02:40;102423.00;;;11.25;100.00
9784;BME280;4931;44.874;-1.092;2023-02-22T08:05:07;102416.44;;;11.26;100.00
9784;BME280;4931;44.874;-1.092;2023-02-22T08:07:35;102419.53;;;11.29;100.00
9784;BME280;4931;44.874;-1.092;2023-02-22T08:10:00;102424.66;;;11.26;100.00
9784;BME280;4931;44.874;-1.092;2023-02-22T08:12:30;102423.00;;;11.25;100.00
9784;BME280;4931;44.874;-1.092;2023-02-22T08:14:55;102424.78;;;11.31;100.00
9784;BME280;4931;44.874;-1.092;2023-02-22T08:17:21;102428.69;;;11.35;100.00
9784;BME280;4931;44.874;-1.092;2023-02-22T08:19:46;102426.56;;;11.37;100.00
9784;BME280;4931;44.874;-1.092;2023-02-22T08:22:12;102419.84;;;11.33;100.00
9784;BME280;4931;44.874;-1.092;2023-02-22T08:24:37;102418.78;;;11.34;100.00
9784;BME280;4931;44.874;-1.092;2023-02-22T08:27:03;102422.69;;;11.38;100.00
9784;BME280;4931;44.874;-1.092;2023-02-22T08:29:28;102415.06;;;11.40;100.00
9784;BME280;4931;44.874;-1.092;2023-02-22T08:31:58;102414.09;;;11.46;100.00
9784;BME280;4931;44.874;-1.092;2023-02-22T08:34:24;102410.59;;;11.51;100.00
9784;BME280;4931;44.874;-1.092;2023-02-22T08:36:49;102386.13;;;11.67;100.00
9784;BME280;4931;44.874;-1.092;2023-02-22T08:39:15;102375.78;;;11.57;100.00
9784;BME280;4931;44.874;-1.092;2023-02-22T08:41:40;102384.72;;;11.64;100.00
9784;BME280;4931;44.874;-1.092;2023-02-22T08:44:06;102379.97;;;11.76;100.00
9784;BME280;4931;44.874;-1.092;2023-02-22T08:46:31;102375.25;;;11.72;100.00
9784;BME280;4931;44.874;-1.092;2023-02-22T08:48:56;102373.81;;;11.69;100.00
9784;BME280;4931;44.874;-1.092;2023-02-22T08:51:22;102374.97;;;11.73;100.00
9784;BME280;4931;44.874;-1.092;2023-02-22T08:53:47;102372.22;;;11.73;100.00
9784;BME280;4931;44.874;-1.092;2023-02-22T08:56:13;102378.34;;;11.75;100.00
9784;BME280;4931;44.874;-1.092;2023-02-22T08:58:38;102367.56;;;11.91;100.00
9784;BME280;4931;44.874;-1.092;2023-02-22T09:01:04;102344.31;;;11.82;100.00
9784;BME280;4931;44.874;-1.092;2023-02-22T09:03:29;102322.84;;;11.78;100.00
9784;BME280;4931;44.874;-1.092;2023-02-22T09:05:55;102316.81;;;11.82;100.00
9784;BME280;4931;44.874;-1.092;2023-02-22T09:08:20;102271.34;;;11.74;100.00
9784;BME280;4931;44.874;-1.092;2023-02-22T09:10:46;102236.44;;;11.74;100.00
9784;BME280;4931;44.874;-1.092;2023-02-22T09:13:14;102226.69;;;11.84;100.00
9784;BME280;4931;44.874;-1.092;2023-02-22T09:15:39;102223.88;;;11.78;100.00
9784;BME280;4931;44.874;-1.092;2023-02-22T09:18:06;102216.78;;;11.83;100.00
9784;BME280;4931;44.874;-1.092;2023-02-22T09:20:33;102207.84;;;11.92;100.00
9784;BME280;4931;44.874;-1.092;2023-02-22T09:23:00;102198.25;;;11.95;100.00
9784;BME280;4931;44.874;-1.092;2023-02-22T09:25:28;102191.03;;;11.89;100.00
9784;BME280;4931;44.874;-1.092;2023-02-22T09:27:55;102178.34;;;11.88;100.00
9784;BME280;4931;44.874;-1.092;2023-02-22T09:30:27;102165.59;;;11.82;100.00
9784;BME280;4931;44.874;-1.092;2023-02-22T09:33:01;102170.28;;;11.81;100.00
9784;BME280;4931;44.874;-1.092;2023-02-22T09:35:27;102160.88;;;11.77;100.00
9784;BME280;4931;44.874;-1.092;2023-02-22T09:37:58;102163.19;;;11.85;100.00
9784;BME280;4931;44.874;-1.092;2023-02-22T09:40:27;102152.91;;;11.75;100.00
9784;BME280;4931;44.874;-1.092;2023-02-22T09:45:30;102151.22;;;11.74;100.00
9784;BME280;4931;44.874;-1.092;2023-02-22T09:47:59;102150.09;;;11.70;100.00
9784;BME280;4931;44.874;-1.092;2023-02-22T09:50:35;102148.41;;;11.69;100.00
9784;BME280;4931;44.874;-1.092;2023-02-22T09:53:09;102151.97;;;11.70;100.00
9784;BME280;4931;44.874;-1.092;2023-02-22T09:55:48;102141.06;;;11.75;100.00
9784;BME280;4931;44.874;-1.092;2023-02-22T09:58:23;102141.91;;;11.75;100.00
9784;BME280;4931;44.874;-1.092;2023-02-22T10:00:54;102139.53;;;11.84;100.00
9784;BME280;4931;44.874;-1.092;2023-02-22T10:03:29;102135.50;;;11.92;100.00
9784;BME280;4931;44.874;-1.092;2023-02-22T10:06:03;102141.50;;;12.06;100.00
9784;BME280;4931;44.874;-1.092;2023-02-22T10:08:33;102129.44;;;12.12;100.00
9784;BME280;4931;44.874;-1.092;2023-02-22T10:11:04;102115.13;;;12.10;100.00
9784;BME280;4931;44.874;-1.092;2023-02-22T10:16:40;102103.06;;;12.11;100.00
9784;BME280;4931;44.874;-1.092;2023-02-22T10:27:13;102097.41;;;12.23;100.00
9784;BME280;4931;44.874;-1.092;2023-02-22T10:29:42;102100.22;;;12.28;100.00
9784;BME280;4931;44.874;-1.092;2023-02-22T10:32:14;102098.03;;;12.30;100.00
9784;BME280;4931;44.874;-1.092;2023-02-22T10:34:45;102096.19;;;12.36;100.00
9784;BME280;4931;44.874;-1.092;2023-02-22T10:37:24;102086.31;;;12.40;100.00
9784;BME280;4931;44.874;-1.092;2023-02-22T10:39:57;102076.94;;;12.41;100.00
9784;BME280;4931;44.874;-1.092;2023-02-22T10:42:25;102086.91;;;12.47;100.00
9784;BME280;4931;44.874;-1.092;2023-02-22T10:44:52;102073.53;;;12.56;100.00
9784;BME280;4931;44.874;-1.092;2023-02-22T10:47:17;102064.72;;;12.59;100.00
9784;BME280;4931;44.874;-1.092;2023-02-22T10:49:58;102043.50;;;12.54;100.00
9784;BME280;4931;44.874;-1.092;2023-02-22T10:52:31;102036.72;;;12.67;100.00
9784;BME280;4931;44.874;-1.092;2023-02-22T10:54:59;102027.28;;;12.58;100.00
9784;BME280;4931;44.874;-1.092;2023-02-22T10:57:28;102006.91;;;12.59;100.00
9784;BME280;4931;44.874;-1.092;2023-02-22T10:59:56;101977.72;;;12.58;100.00
9784;BME280;4931;44.874;-1.092;2023-02-22T11:02:31;101973.66;;;12.66;100.00
9784;BME280;4931;44.874;-1.092;2023-02-22T11:04:59;101974.03;;;12.79;100.00
9784;BME280;4931;44.874;-1.092;2023-02-22T11:12:33;101930.84;;;13.38;100.00
9784;BME280;4931;44.874;-1.092;2023-02-22T11:17:53;101880.06;;;13.24;100.00
9784;BME280;4931;44.874;-1.092;2023-02-22T11:20:24;101849.78;;;13.29;100.00
9784;BME280;4931;44.874;-1.092;2023-02-22T11:22:55;101815.56;;;13.25;100.00
9784;BME280;4931;44.874;-1.092;2023-02-22T11:25:27;101773.69;;;13.18;100.00
9784;BME280;4931;44.874;-1.092;2023-02-22T11:27:54;101747.50;;;13.10;100.00
9784;BME280;4931;44.874;-1.092;2023-02-22T11:30:31;101753.28;;;13.03;100.00
9784;BME280;4931;44.874;-1.092;2023-02-22T11:36:02;101762.69;;;13.23;100.00
9784;BME280;4931;44.874;-1.092;2023-02-22T11:38:32;101762.41;;;13.29;100.00
9784;BME280;4931;44.874;-1.092;2023-02-22T11:41:45;101748.34;;;13.31;100.00
9784;BME280;4931;44.874;-1.092;2023-02-22T11:44:22;101747.84;;;13.39;100.00
9784;BME280;4931;44.874;-1.092;2023-02-22T11:46:51;101723.88;;;13.40;100.00
9784;BME280;4931;44.874;-1.092;2023-02-22T11:49:22;101711.16;;;13.34;100.00
9784;BME280;4931;44.874;-1.092;2023-02-22T11:52:01;101702.06;;;13.33;100.00
9784;BME280;4931;44.874;-1.092;2023-02-22T12:02:59;101658.56;;;13.40;100.00
9784;BME280;4931;44.874;-1.092;2023-02-22T12:08:33;101621.91;;;13.45;100.00
9784;BME280;4931;44.874;-1.092;2023-02-22T12:11:10;101593.47;;;13.34;100.00
9784;BME280;4931;44.874;-1.092;2023-02-22T12:21:38;101580.56;;;13.40;100.00
9784;BME280;4931;44.874;-1.092;2023-02-22T12:26:38;101575.06;;;13.24;100.00
9784;BME280;4931;44.874;-1.092;2023-02-22T12:29:29;101580.28;;;13.26;100.00
9784;BME280;4931;44.874;-1.092;2023-02-22T12:34:47;101591.88;;;13.23;100.00
9784;BME280;4931;44.874;-1.092;2023-02-22T12:37:47;101583.03;;;13.10;100.00
9784;BME280;4931;44.874;-1.092;2023-02-22T12:48:46;101583.91;;;13.01;100.00
9784;BME280;4931;44.874;-1.092;2023-02-22T12:53:40;101601.50;;;12.89;100.00
9784;BME280;4931;44.874;-1.092;2023-02-22T12:56:18;101615.56;;;12.83;100.00
9784;BME280;4931;44.874;-1.092;2023-02-22T12:59:04;101621.59;;;12.74;100.00
9784;BME280;4931;44.874;-1.092;2023-02-22T13:01:44;101600.41;;;12.85;100.00
9784;BME280;4931;44.874;-1.092;2023-02-22T13:04:14;101597.94;;;12.73;100.00
9784;BME280;4931;44.874;-1.092;2023-02-22T13:12:14;101607.56;;;12.76;100.00
9784;BME280;4931;44.874;-1.092;2023-02-22T13:14:58;101611.69;;;12.73;100.00
9784;BME280;4931;44.874;-1.092;2023-02-22T13:20:49;101595.19;;;12.84;100.00
9784;BME280;4931;44.874;-1.092;2023-02-22T13:26:20;101569.31;;;12.95;100.00
9784;BME280;4931;44.874;-1.092;2023-02-22T13:29:09;101548.38;;;12.99;100.00
9784;BME280;4931;44.874;-1.092;2023-02-22T13:45:34;101477.16;;;13.58;100.00
9784;BME280;4931;44.874;-1.092;2023-02-22T13:53:51;101376.50;;;14.05;100.00
9784;BME280;4931;44.874;-1.092;2023-02-22T13:56:21;101373.69;;;14.10;100.00
9784;BME280;4931;44.874;-1.092;2023-02-22T13:58:53;101359.69;;;14.02;100.00
9784;BME280;4931;44.874;-1.092;2023-02-22T14:09:58;101349.09;;;13.80;100.00
9784;BME280;4931;44.874;-1.092;2023-02-22T14:17:38;101353.28;;;13.72;100.00
9784;BME280;4931;44.874;-1.092;2023-02-22T14:22:44;101355.78;;;13.68;100.00
9784;BME280;4931;44.874;-1.092;2023-02-22T14:25:36;101349.25;;;13.54;100.00
9784;BME280;4931;44.874;-1.092;2023-02-22T14:28:08;101359.47;;;13.53;100.00
9784;BME280;4931;44.874;-1.092;2023-02-22T14:31:10;101352.00;;;13.59;100.00
9784;BME280;4931;44.874;-1.092;2023-02-22T14:39:23;101355.38;;;13.45;100.00
9784;BME280;4931;44.874;-1.092;2023-02-22T14:41:57;101359.22;;;13.50;100.00
9784;BME280;4931;44.874;-1.092;2023-02-22T14:44:31;101337.16;;;13.50;100.00
9784;BME280;4931;44.874;-1.092;2023-02-22T14:46:59;101335.44;;;13.59;100.00
9784;BME280;4931;44.874;-1.092;2023-02-22T14:49:31;101331.16;;;13.42;100.00
9784;BME280;4931;44.874;-1.092;2023-02-22T14:52:05;101330.59;;;13.45;100.00
9784;BME280;4931;44.874;-1.092;2023-02-22T14:54:48;101334.47;;;13.39;100.00
9784;BME280;4931;44.874;-1.092;2023-02-22T14:57:26;101343.56;;;13.45;100.00
9784;BME280;4931;44.874;-1.092;2023-02-22T15:00:06;101336.69;;;13.42;100.00
9784;BME280;4931;44.874;-1.092;2023-02-22T15:02:52;101335.59;;;13.38;100.00
9784;BME280;4931;44.874;-1.092;2023-02-22T15:05:21;101333.88;;;13.48;100.00
9784;BME280;4931;44.874;-1.092;2023-02-22T15:07:54;101321.28;;;13.36;100.00
9784;BME280;4931;44.874;-1.092;2023-02-22T15:10:23;101330.09;;;13.38;100.00
9784;BME280;4931;44.874;-1.092;2023-02-22T15:12:52;101322.34;;;13.40;100.00
9784;BME280;4931;44.874;-1.092;2023-02-22T15:15:22;101321.78;;;13.43;100.00
9784;BME280;4931;44.874;-1.092;2023-02-22T15:17:53;101319.56;;;13.45;100.00
9784;BME280;4931;44.874;-1.092;2023-02-22T15:20:19;101320.50;;;13.25;100.00
9784;BME280;4931;44.874;-1.092;2023-02-22T15:22:45;101330.44;;;13.21;100.00
9784;BME280;4931;44.874;-1.092;2023-02-22T15:25:12;101327.69;;;13.21;100.00
9784;BME280;4931;44.874;-1.092;2023-02-22T15:27:40;101334.03;;;13.17;100.00
9784;BME280;4931;44.874;-1.092;2023-02-22T15:30:23;101328.00;;;13.15;100.00
9784;BME280;4931;44.874;-1.092;2023-02-22T15:32:51;101320.97;;;13.33;100.00